Time;durP1;ratioP1;P1;durP2;ratioP2;P2;SDS_P1;SDS_P2;PMS_P1;PMS_P2;Temp;Humidity;BMP_temperature;BMP_pressure;BME280_temperature;BME280_humidity;BME280_pressure;Samples;Min_cycle;Max_cycle;Signal;HPM_P1;HPM_P2
2022/03/04 00:00:54;;;;;;;41.97;11.03;;;1.10;97.30;;;;;;5055111;28;20179;-84
2022/03/04 00:03:19;;;;;;;35.87;12.47;;;1.10;97.30;;;;;;5055676;28;20224;-84
2022/03/04 00:05:45;;;;;;;38.77;12.33;;;1.00;97.30;;;;;;5055810;28;20429;-86
2022/03/04 00:08:10;;;;;;;42.50;12.40;;;1.00;97.30;;;;;;5054797;28;20334;-86
2022/03/04 00:10:36;;;;;;;38.53;13.50;;;1.00;97.30;;;;;;5055195;28;20348;-85
2022/03/04 00:13:02;;;;;;;43.37;13.30;;;1.00;97.30;;;;;;5055077;28;20190;-84
2022/03/04 00:15:28;;;;;;;34.70;11.13;;;1.00;97.30;;;;;;5072862;28;20409;-86
2022/03/04 00:17:54;;;;;;;43.40;13.30;;;1.00;97.30;;;;;;5055341;28;20749;-85
2022/03/04 00:20:19;;;;;;;38.77;12.73;;;0.90;97.30;;;;;;5054609;28;20512;-86
2022/03/04 00:22:45;;;;;;;41.53;13.40;;;0.90;97.30;;;;;;5054320;28;20189;-86
2022/03/04 00:25:10;;;;;;;40.57;12.03;;;0.90;97.30;;;;;;5054471;28;20221;-86
2022/03/04 00:27:36;;;;;;;39.43;12.33;;;0.90;97.30;;;;;;5054455;28;20194;-85
2022/03/04 00:30:02;;;;;;;45.03;11.90;;;0.90;97.30;;;;;;5055349;28;20210;-85
2022/03/04 00:32:28;;;;;;;51.23;12.77;;;0.90;97.30;;;;;;5072968;28;20179;-84
2022/03/04 00:34:53;;;;;;;49.77;14.20;;;0.90;97.30;;;;;;5055355;28;20413;-86
2022/03/04 00:37:19;;;;;;;39.53;13.43;;;0.80;97.30;;;;;;5055344;28;20240;-86
2022/03/04 00:39:45;;;;;;;45.73;14.60;;;0.80;97.30;;;;;;5055519;28;20266;-86
2022/03/04 00:42:11;;;;;;;53.30;14.87;;;0.80;97.30;;;;;;5054984;28;20179;-86
2022/03/04 00:44:36;;;;;;;52.43;14.50;;;0.70;97.30;;;;;;5054193;28;21010;-86
2022/03/04 00:47:04;;;;;;;54.00;16.17;;;0.70;97.30;;;;;;5072525;28;20167;-86
2022/03/04 00:49:29;;;;;;;42.90;12.57;;;0.70;97.30;;;;;;5054146;28;20203;-86
2022/03/04 00:51:54;;;;;;;49.83;16.80;;;0.70;97.30;;;;;;5054254;28;20468;-86
2022/03/04 00:54:20;;;;;;;55.93;15.50;;;0.70;97.30;;;;;;5053642;28;20171;-86
2022/03/04 00:56:45;;;;;;;50.97;16.17;;;0.70;97.30;;;;;;5054785;28;20167;-86
2022/03/04 00:59:11;;;;;;;51.13;16.10;;;0.70;97.30;;;;;;5056874;28;20203;-85
2022/03/04 01:01:36;;;;;;;59.77;15.07;;;0.70;97.30;;;;;;5076110;28;20179;-84
2022/03/04 01:04:03;;;;;;;54.40;16.13;;;0.70;97.30;;;;;;5075831;28;20194;-86
2022/03/04 01:06:28;;;;;;;58.87;17.67;;;0.70;97.30;;;;;;5058127;28;20179;-85
2022/03/04 01:08:54;;;;;;;51.97;17.40;;;0.70;97.30;;;;;;5057541;28;20527;-86
2022/03/04 01:11:19;;;;;;;57.37;15.37;;;0.70;97.30;;;;;;5057889;28;20180;-84
2022/03/04 01:13:45;;;;;;;55.33;15.60;;;0.70;97.30;;;;;;5080674;28;20187;-86
2022/03/04 01:16:10;;;;;;;55.37;14.67;;;0.70;97.30;;;;;;5057965;28;20813;-86
2022/03/04 01:18:36;;;;;;;54.87;15.10;;;0.60;97.30;;;;;;5057388;28;20207;-86
2022/03/04 01:21:03;;;;;;;49.70;15.37;;;0.60;97.30;;;;;;5057614;28;20183;-86
2022/03/04 01:23:28;;;;;;;44.23;14.93;;;0.60;97.30;;;;;;5057363;28;20566;-86
2022/03/04 01:25:55;;;;;;;57.13;16.83;;;0.60;97.30;;;;;;5057334;28;20423;-86
2022/03/04 01:28:21;;;;;;;48.27;15.40;;;0.60;97.30;;;;;;5046525;28;20207;-86
2022/03/04 01:30:47;;;;;;;44.53;14.43;;;0.60;97.30;;;;;;5037262;28;20974;-86
2022/03/04 01:33:12;;;;;;;48.83;15.30;;;0.70;97.30;;;;;;5037338;28;20172;-86
2022/03/04 01:35:38;;;;;;;54.00;15.50;;;0.70;97.30;;;;;;5037053;28;20410;-86
2022/03/04 01:38:04;;;;;;;55.57;16.07;;;0.70;97.30;;;;;;5037292;28;20279;-86
2022/03/04 01:40:30;;;;;;;59.67;16.20;;;0.70;97.30;;;;;;5037262;28;20180;-86
2022/03/04 01:42:55;;;;;;;67.53;19.23;;;0.70;97.30;;;;;;5037435;28;20183;-85
2022/03/04 01:45:22;;;;;;;52.97;14.60;;;0.70;97.30;;;;;;5037360;28;20187;-84
2022/03/04 01:47:48;;;;;;;50.63;15.60;;;0.70;97.30;;;;;;5037263;28;20205;-86
2022/03/04 01:50:14;;;;;;;57.83;16.77;;;0.70;97.30;;;;;;5037095;28;20466;-86
2022/03/04 01:52:40;;;;;;;56.33;15.80;;;0.70;97.30;;;;;;5055039;28;20421;-85
2022/03/04 01:55:08;;;;;;;59.03;17.67;;;0.70;97.30;;;;;;5036837;28;20430;-86
2022/03/04 01:57:34;;;;;;;56.10;16.37;;;0.70;97.30;;;;;;5036843;28;20957;-86
2022/03/04 01:59:59;;;;;;;61.73;18.60;;;0.70;97.30;;;;;;5037011;28;20425;-86
2022/03/04 02:02:25;;;;;;;62.77;17.50;;;0.70;97.30;;;;;;5037113;28;20445;-86
2022/03/04 02:04:51;;;;;;;57.83;16.77;;;0.70;97.30;;;;;;5036560;28;20188;-86
2022/03/04 02:07:17;;;;;;;56.83;18.00;;;0.70;97.30;;;;;;5036705;28;20231;-86
2022/03/04 02:09:42;;;;;;;71.80;18.70;;;0.80;97.30;;;;;;5054700;28;20520;-85
2022/03/04 02:12:08;;;;;;;58.17;16.87;;;0.80;97.30;;;;;;5036924;28;20229;-86
2022/03/04 02:14:34;;;;;;;51.53;15.80;;;0.80;97.30;;;;;;5036298;28;20262;-86
2022/03/04 02:17:00;;;;;;;60.17;16.73;;;0.80;97.30;;;;;;5054619;28;20412;-85
2022/03/04 02:19:25;;;;;;;59.00;16.33;;;0.80;97.30;;;;;;5036529;28;20182;-85
2022/03/04 02:22:02;;;;;;;43.97;15.20;;;0.80;97.30;;;;;;5036405;28;20221;-86
2022/03/04 02:24:29;;;;;;;60.17;16.20;;;0.80;97.30;;;;;;5036510;28;20179;-84
2022/03/04 02:26:57;;;;;;;55.20;16.40;;;0.80;97.30;;;;;;5036705;28;20982;-85
2022/03/04 02:29:23;;;;;;;51.50;16.00;;;0.80;97.30;;;;;;5073039;28;20492;-85
2022/03/04 02:31:50;;;;;;;54.13;17.20;;;0.80;97.30;;;;;;5056470;28;20414;-87
2022/03/04 02:34:17;;;;;;;48.53;16.40;;;0.80;97.30;;;;;;5074104;28;20417;-86
2022/03/04 02:36:43;;;;;;;44.23;15.87;;;0.80;97.30;;;;;;5055978;28;20425;-85
2022/03/04 02:39:10;;;;;;;49.07;15.77;;;0.80;97.30;;;;;;5056285;28;20428;-86
2022/03/04 02:41:36;;;;;;;54.93;16.60;;;0.80;97.30;;;;;;5056908;28;21135;-86
2022/03/04 02:44:09;;;;;;;50.40;16.77;;;0.80;97.30;;;;;;5073945;28;20417;-84
2022/03/04 02:46:36;;;;;;;55.90;16.03;;;0.80;97.30;;;;;;5056422;28;20224;-85
2022/03/04 02:49:04;;;;;;;53.73;16.20;;;0.80;97.30;;;;;;5055955;28;20453;-86
2022/03/04 02:51:30;;;;;;;48.97;15.80;;;0.80;97.30;;;;;;5056029;28;20500;-85
2022/03/04 02:53:55;;;;;;;55.00;17.30;;;0.80;97.30;;;;;;5073881;28;20492;-87
2022/03/04 02:56:21;;;;;;;48.83;16.00;;;0.70;97.30;;;;;;5056204;28;20181;-86
2022/03/04 02:58:46;;;;;;;56.53;17.90;;;0.70;97.30;;;;;;5055671;28;20195;-86
2022/03/04 03:01:12;;;;;;;51.80;16.90;;;0.70;97.30;;;;;;5074071;28;20623;-85
2022/03/04 03:03:38;;;;;;;56.97;14.97;;;0.70;97.30;;;;;;5056007;28;20182;-86
2022/03/04 03:06:05;;;;;;;50.27;14.30;;;0.70;97.30;;;;;;5061359;28;20315;-84
2022/03/04 03:08:30;;;;;;;47.27;15.07;;;0.70;97.30;;;;;;5052324;28;20231;-85
2022/03/04 03:10:56;;;;;;;59.57;19.27;;;0.70;97.30;;;;;;5052287;28;20422;-86
2022/03/04 03:13:22;;;;;;;56.90;15.50;;;0.80;97.30;;;;;;5052340;28;20846;-86
2022/03/04 03:15:48;;;;;;;49.47;16.57;;;0.80;97.30;;;;;;5052150;28;20928;-86
2022/03/04 03:18:14;;;;;;;49.87;14.93;;;0.80;97.30;;;;;;5052560;28;20568;-85
2022/03/04 03:20:39;;;;;;;53.23;15.70;;;0.80;97.30;;;;;;5051575;28;20418;-86
2022/03/04 03:23:05;;;;;;;48.57;15.20;;;0.80;97.30;;;;;;5051874;28;20283;-86
2022/03/04 03:25:30;;;;;;;51.23;16.80;;;0.80;97.30;;;;;;5052415;28;20265;-86
2022/03/04 03:27:56;;;;;;;59.60;19.50;;;0.80;97.30;;;;;;5050041;28;20199;-85
2022/03/04 03:30:21;;;;;;;53.57;17.60;;;0.80;97.30;;;;;;5032199;28;20239;-86
2022/03/04 03:32:47;;;;;;;57.30;16.23;;;0.80;97.30;;;;;;5047674;28;20241;-85
2022/03/04 03:35:13;;;;;;;56.37;18.17;;;0.80;97.30;;;;;;5042416;28;20661;-85
2022/03/04 03:37:39;;;;;;;58.20;16.40;;;0.80;97.30;;;;;;5032784;28;20241;-84
2022/03/04 03:40:07;;;;;;;65.13;19.33;;;0.80;97.30;;;;;;5032497;28;20183;-86
2022/03/04 03:42:32;;;;;;;68.50;20.60;;;0.80;97.30;;;;;;5032495;28;20438;-86
2022/03/04 03:44:58;;;;;;;71.57;19.70;;;0.80;97.30;;;;;;5032840;28;20914;-86
2022/03/04 03:47:23;;;;;;;60.40;18.40;;;0.80;97.30;;;;;;5032609;28;20261;-86
2022/03/04 03:49:49;;;;;;;58.00;17.83;;;0.90;97.30;;;;;;5031311;28;20211;-85
2022/03/04 03:52:15;;;;;;;59.77;19.17;;;0.80;97.30;;;;;;5050213;28;20205;-86
2022/03/04 03:54:40;;;;;;;57.77;17.23;;;0.80;97.30;;;;;;5045689;28;20593;-86
2022/03/04 03:57:06;;;;;;;74.93;22.37;;;0.80;97.30;;;;;;5031611;28;20267;-86
2022/03/04 03:59:31;;;;;;;60.27;19.17;;;0.80;97.30;;;;;;5032587;28;20203;-85
2022/03/04 04:01:58;;;;;;;71.03;17.27;;;0.80;97.30;;;;;;5032467;28;20478;-86
2022/03/04 04:04:24;;;;;;;56.07;18.07;;;0.80;97.30;;;;;;5031928;28;20188;-86
2022/03/04 04:06:50;;;;;;;66.73;18.73;;;0.80;97.30;;;;;;5032525;28;20435;-85
2022/03/04 04:09:16;;;;;;;66.67;18.80;;;0.80;97.30;;;;;;5035274;28;20526;-85
2022/03/04 04:11:43;;;;;;;72.97;18.40;;;0.80;97.30;;;;;;5035615;28;20406;-85
2022/03/04 04:14:09;;;;;;;57.47;19.47;;;0.80;97.30;;;;;;5053266;28;20172;-86
2022/03/04 04:16:36;;;;;;;58.20;17.37;;;0.80;97.30;;;;;;5035076;28;20414;-86
2022/03/04 04:19:01;;;;;;;71.03;18.03;;;0.80;97.30;;;;;;5034833;28;20430;-85
2022/03/04 04:21:28;;;;;;;68.60;20.20;;;0.80;97.30;;;;;;5044892;28;20547;-85
2022/03/04 04:23:54;;;;;;;64.70;18.13;;;0.80;97.30;;;;;;5054774;28;20414;-86
2022/03/04 04:26:21;;;;;;;77.20;19.03;;;0.80;97.30;;;;;;5054615;28;20551;-86
2022/03/04 04:28:47;;;;;;;64.17;19.37;;;0.80;97.30;;;;;;5072570;28;20467;-86
2022/03/04 04:31:13;;;;;;;82.17;20.07;;;0.80;97.30;;;;;;5055291;28;20412;-86
2022/03/04 04:33:39;;;;;;;60.23;19.30;;;0.80;97.30;;;;;;5074347;28;20175;-86
2022/03/04 04:36:05;;;;;;;82.03;20.90;;;0.80;97.30;;;;;;5060212;28;20421;-86
2022/03/04 04:38:31;;;;;;;58.27;16.90;;;0.70;97.30;;;;;;5064246;28;20263;-87
2022/03/04 04:40:57;;;;;;;83.00;20.17;;;0.70;97.30;;;;;;5076713;28;20476;-85
2022/03/04 04:43:23;;;;;;;66.00;18.27;;;0.70;97.30;;;;;;5058500;28;20420;-86
2022/03/04 04:45:49;;;;;;;70.60;19.50;;;0.70;97.30;;;;;;5058699;28;20189;-86
2022/03/04 04:48:15;;;;;;;76.13;20.03;;;0.70;97.30;;;;;;5058521;28;20532;-86
2022/03/04 04:50:40;;;;;;;71.77;20.27;;;0.70;97.30;;;;;;5058614;28;20414;-85
2022/03/04 04:53:06;;;;;;;69.57;19.57;;;0.70;97.30;;;;;;5058134;28;20427;-86
2022/03/04 04:55:31;;;;;;;58.47;18.97;;;0.70;97.30;;;;;;5057905;28;20250;-86
2022/03/04 04:57:57;;;;;;;72.70;19.13;;;0.70;97.30;;;;;;5038555;28;20571;-86
2022/03/04 05:00:22;;;;;;;65.27;18.90;;;0.60;97.30;;;;;;5043691;28;20175;-86
2022/03/04 05:02:48;;;;;;;79.23;23.07;;;0.60;97.30;;;;;;5055965;28;20180;-85
2022/03/04 05:05:13;;;;;;;83.93;19.40;;;0.60;97.30;;;;;;5038206;28;20172;-86
2022/03/04 05:07:39;;;;;;;75.60;21.33;;;0.60;97.30;;;;;;5055886;28;20740;-85
2022/03/04 05:10:05;;;;;;;74.33;20.30;;;0.60;97.30;;;;;;5038137;28;20198;-84
2022/03/04 05:12:32;;;;;;;77.37;22.37;;;0.60;97.30;;;;;;5037683;28;20181;-86
2022/03/04 05:14:57;;;;;;;86.97;19.67;;;0.60;97.30;;;;;;5037634;28;20414;-86
2022/03/04 05:17:24;;;;;;;67.37;19.70;;;0.60;97.30;;;;;;5037835;28;20433;-86
2022/03/04 05:19:50;;;;;;;69.30;19.63;;;0.60;97.30;;;;;;5037834;28;20254;-86
2022/03/04 05:22:15;;;;;;;71.30;23.03;;;0.60;97.30;;;;;;5038356;28;20437;-86
2022/03/04 05:24:41;;;;;;;77.47;24.03;;;0.60;97.30;;;;;;5038071;28;20940;-87
2022/03/04 05:27:07;;;;;;;76.00;20.83;;;0.60;97.30;;;;;;5038048;28;20233;-86
2022/03/04 05:29:33;;;;;;;83.03;21.47;;;0.60;97.30;;;;;;5037817;28;20458;-86
2022/03/04 05:31:59;;;;;;;68.23;18.63;;;0.60;97.30;;;;;;5037671;28;20413;-87
2022/03/04 05:34:25;;;;;;;63.23;19.00;;;0.60;97.30;;;;;;5037689;28;20172;-86
2022/03/04 05:36:51;;;;;;;81.10;21.50;;;0.60;97.30;;;;;;5037216;28;20176;-84
2022/03/04 05:39:16;;;;;;;55.53;17.13;;;0.60;97.30;;;;;;5041092;28;21073;-86
2022/03/04 05:41:41;;;;;;;65.67;19.10;;;0.60;97.30;;;;;;5037451;28;20168;-84
2022/03/04 05:44:07;;;;;;;72.37;19.17;;;0.60;97.30;;;;;;5037067;28;20179;-85
2022/03/04 05:46:33;;;;;;;68.90;18.07;;;0.50;97.30;;;;;;5037098;28;20189;-86
2022/03/04 05:48:59;;;;;;;75.60;19.77;;;0.50;97.30;;;;;;5037523;28;20200;-87
2022/03/04 05:51:24;;;;;;;66.07;18.00;;;0.60;97.30;;;;;;5037178;28;20249;-86
2022/03/04 05:53:51;;;;;;;65.13;18.40;;;0.60;97.30;;;;;;5038124;28;20643;-84
2022/03/04 05:56:39;;;;;;;66.03;17.20;;;0.60;97.30;;;;;;5057165;28;20208;-86
2022/03/04 05:59:05;;;;;;;63.60;16.70;;;0.60;97.30;;;;;;5035399;28;20518;-86
2022/03/04 06:01:39;;;;;;;57.67;17.40;;;0.60;97.30;;;;;;5030464;28;20501;-86
2022/03/04 06:04:04;;;;;;;50.03;15.30;;;0.60;97.30;;;;;;5033930;28;20179;-85
2022/03/04 06:06:30;;;;;;;56.83;16.93;;;0.60;97.30;;;;;;5069845;28;20820;-86
2022/03/04 06:08:55;;;;;;;61.37;17.97;;;0.60;97.30;;;;;;5024501;28;20228;-86
2022/03/04 06:11:21;;;;;;;80.50;17.97;;;0.60;97.30;;;;;;5042484;28;20259;-83
2022/03/04 06:13:46;;;;;;;52.43;17.17;;;0.60;97.30;;;;;;5023877;28;20177;-86
2022/03/04 06:16:12;;;;;;;49.70;15.77;;;0.60;97.30;;;;;;5035891;28;20186;-85
2022/03/04 06:18:37;;;;;;;67.07;18.00;;;0.60;97.30;;;;;;5048852;28;20274;-86
2022/03/04 06:21:04;;;;;;;52.33;15.60;;;0.60;97.30;;;;;;5043481;28;20279;-86
2022/03/04 06:23:30;;;;;;;57.07;14.73;;;0.60;97.30;;;;;;5040113;28;20180;-85
2022/03/04 06:25:57;;;;;;;57.37;17.60;;;0.60;97.30;;;;;;5037033;28;20936;-84
2022/03/04 06:28:24;;;;;;;55.57;16.40;;;0.60;97.30;;;;;;5045697;28;20437;-87
2022/03/04 06:30:49;;;;;;;56.27;16.60;;;0.60;97.30;;;;;;5074937;28;20406;-86
2022/03/04 06:33:30;;;;;;;52.90;17.07;;;0.60;97.30;;;;;;5057340;28;20997;-86
2022/03/04 06:35:58;;;;;;;60.10;15.20;;;0.60;97.30;;;;;;5075955;28;20159;-86
2022/03/04 06:38:24;;;;;;;51.83;15.90;;;0.70;97.30;;;;;;5056933;28;20461;-87
2022/03/04 06:40:50;;;;;;;46.47;15.00;;;0.70;97.30;;;;;;5074304;28;20942;-86
2022/03/04 06:43:17;;;;;;;61.50;15.90;;;0.70;97.30;;;;;;5057855;28;20186;-85
2022/03/04 06:45:45;;;;;;;50.50;14.87;;;0.70;97.30;;;;;;5057516;28;20417;-85
2022/03/04 06:48:11;;;;;;;49.43;14.87;;;0.70;97.30;;;;;;5058166;28;20425;-85
2022/03/04 06:50:37;;;;;;;54.73;14.97;;;0.70;97.30;;;;;;5058056;28;20466;-85
2022/03/04 06:53:03;;;;;;;50.33;15.33;;;0.70;97.30;;;;;;5057106;28;20452;-86
2022/03/04 06:55:29;;;;;;;53.77;16.87;;;0.70;97.30;;;;;;5075853;28;20473;-86
2022/03/04 06:57:55;;;;;;;53.60;16.10;;;0.70;97.30;;;;;;5060194;28;20231;-85
2022/03/04 07:00:21;;;;;;;45.93;14.67;;;0.70;97.30;;;;;;5056462;28;20944;-85
2022/03/04 07:02:47;;;;;;;59.13;15.73;;;0.70;97.30;;;;;;5063322;28;20179;-86
2022/03/04 07:05:13;;;;;;;51.73;15.83;;;0.70;97.30;;;;;;5045814;28;20861;-86
2022/03/04 07:07:39;;;;;;;56.83;14.17;;;0.70;97.30;;;;;;5053181;28;21019;-86
2022/03/04 07:10:06;;;;;;;43.30;13.00;;;0.80;97.30;;;;;;5054378;28;20458;-86
2022/03/04 07:12:31;;;;;;;47.70;14.33;;;0.80;97.30;;;;;;5053540;28;20414;-84
2022/03/04 07:14:57;;;;;;;41.07;12.97;;;0.80;97.30;;;;;;5054528;28;20421;-84
2022/03/04 07:17:22;;;;;;;45.80;13.90;;;0.80;97.30;;;;;;5055852;28;20200;-84
2022/03/04 07:19:48;;;;;;;37.57;13.60;;;0.80;97.30;;;;;;5053889;28;20190;-86
2022/03/04 07:22:14;;;;;;;36.53;11.83;;;0.80;97.30;;;;;;5055221;28;20233;-85
2022/03/04 07:24:39;;;;;;;42.87;12.90;;;0.80;97.30;;;;;;5054616;28;20176;-86
2022/03/04 07:27:05;;;;;;;34.50;11.60;;;0.90;97.30;;;;;;5053309;28;20666;-86
2022/03/04 07:29:30;;;;;;;39.53;12.80;;;0.90;97.30;;;;;;5052351;28;20207;-82
2022/03/04 07:31:56;;;;;;;34.10;10.73;;;0.90;97.30;;;;;;5052275;28;20720;-84
2022/03/04 07:34:25;;;;;;;38.60;13.50;;;1.00;97.30;;;;;;5052343;28;21899;-85
2022/03/04 07:36:52;;;;;;;43.83;13.20;;;1.00;97.30;;;;;;5054236;28;20190;-85
2022/03/04 07:39:18;;;;;;;43.30;12.37;;;1.00;97.30;;;;;;5054379;28;20415;-82
2022/03/04 07:41:43;;;;;;;39.30;12.73;;;1.00;97.30;;;;;;5053818;28;20427;-85
2022/03/04 07:44:10;;;;;;;37.53;11.07;;;1.00;97.30;;;;;;5054188;28;20410;-85
2022/03/04 07:46:36;;;;;;;37.17;10.97;;;1.00;97.30;;;;;;5053163;28;20179;-85
2022/03/04 07:49:03;;;;;;;33.97;9.90;;;1.00;97.30;;;;;;5053316;28;20465;-85
2022/03/04 07:51:28;;;;;;;39.83;11.37;;;1.00;97.30;;;;;;5052138;28;20407;-85
2022/03/04 07:53:54;;;;;;;32.07;10.73;;;1.00;97.30;;;;;;5053225;28;21209;-84
2022/03/04 07:56:20;;;;;;;30.17;9.67;;;1.10;97.30;;;;;;5053999;28;20160;-86
2022/03/04 07:58:45;;;;;;;33.43;11.00;;;1.10;97.30;;;;;;5052720;28;20603;-86
2022/03/04 08:01:11;;;;;;;34.60;10.80;;;1.10;97.30;;;;;;5052834;28;20784;-86
2022/03/04 08:03:36;;;;;;;46.73;12.70;;;1.20;97.30;;;;;;5052019;28;20206;-86
2022/03/04 08:06:02;;;;;;;31.50;11.57;;;1.20;97.30;;;;;;5053683;28;20556;-84
2022/03/04 08:08:28;;;;;;;39.83;12.47;;;1.20;97.30;;;;;;5050639;28;20231;-85
2022/03/04 08:10:54;;;;;;;31.00;10.93;;;1.30;97.30;;;;;;5033028;28;20204;-84
2022/03/04 08:13:20;;;;;;;42.93;13.77;;;1.30;97.30;;;;;;5032997;28;20491;-85
2022/03/04 08:15:46;;;;;;;28.63;9.83;;;1.30;97.30;;;;;;5033025;28;20430;-85
2022/03/04 08:18:12;;;;;;;41.03;10.90;;;1.40;97.30;;;;;;5032606;28;20450;-84
2022/03/04 08:20:38;;;;;;;45.10;11.63;;;1.40;97.30;;;;;;5034585;28;20419;-85
2022/03/04 08:23:03;;;;;;;34.80;11.83;;;1.40;97.30;;;;;;5034466;28;20168;-86
2022/03/04 08:25:29;;;;;;;33.47;11.17;;;1.50;97.30;;;;;;5032584;28;20424;-85
2022/03/04 08:27:55;;;;;;;35.53;10.10;;;1.50;97.30;;;;;;5032452;28;20197;-84
2022/03/04 08:30:20;;;;;;;33.40;10.60;;;1.50;97.30;;;;;;5032619;28;20200;-84
2022/03/04 08:32:46;;;;;;;42.17;10.40;;;1.50;97.30;;;;;;5033079;28;20173;-85
2022/03/04 08:35:12;;;;;;;33.63;10.83;;;1.50;97.30;;;;;;5033191;28;20244;-84
2022/03/04 08:37:37;;;;;;;34.07;11.50;;;1.50;97.30;;;;;;5034268;28;20770;-85
2022/03/04 08:40:05;;;;;;;34.97;11.67;;;1.60;97.30;;;;;;5033012;28;20690;-85
2022/03/04 08:42:31;;;;;;;36.20;11.83;;;1.70;97.30;;;;;;5033397;28;20411;-85
2022/03/04 08:44:57;;;;;;;29.10;11.20;;;1.80;97.30;;;;;;5032118;28;20421;-85
2022/03/04 08:47:22;;;;;;;30.50;9.60;;;1.90;97.30;;;;;;5034865;28;20203;-86
2022/03/04 08:49:48;;;;;;;30.53;9.27;;;1.90;97.30;;;;;;5032752;28;20204;-86
2022/03/04 08:52:13;;;;;;;27.90;9.83;;;2.00;97.30;;;;;;5033350;28;20175;-86
2022/03/04 08:54:39;;;;;;;32.87;10.90;;;2.10;97.30;;;;;;5031756;28;20185;-85
2022/03/04 08:57:05;;;;;;;21.20;9.50;;;2.10;97.30;;;;;;5032177;28;20205;-86
2022/03/04 08:59:31;;;;;;;34.27;11.80;;;2.20;97.30;;;;;;5032304;28;20186;-82
2022/03/04 09:01:56;;;;;;;27.70;8.73;;;2.20;97.30;;;;;;5032129;28;20449;-84
2022/03/04 09:04:23;;;;;;;31.83;11.23;;;2.20;97.30;;;;;;5032704;28;20187;-84
2022/03/04 09:06:48;;;;;;;27.47;9.27;;;2.20;97.30;;;;;;5032621;28;20208;-86
2022/03/04 09:09:14;;;;;;;29.03;11.87;;;2.20;97.30;;;;;;5036156;28;20473;-85
2022/03/04 09:11:39;;;;;;;20.03;8.13;;;2.30;97.30;;;;;;5035378;28;20210;-86
2022/03/04 09:14:06;;;;;;;31.47;10.50;;;2.40;97.30;;;;;;5034567;28;20184;-85
2022/03/04 09:16:32;;;;;;;29.83;8.10;;;2.40;97.30;;;;;;5035485;28;20230;-85
2022/03/04 09:18:57;;;;;;;18.60;8.27;;;2.50;97.30;;;;;;5034682;28;20442;-85
2022/03/04 09:21:23;;;;;;;16.80;6.40;;;2.60;97.30;;;;;;5039203;28;20414;-83
2022/03/04 09:23:48;;;;;;;17.60;6.57;;;2.60;97.30;;;;;;5039164;28;20184;-84
2022/03/04 09:26:15;;;;;;;14.10;5.83;;;2.60;97.30;;;;;;5039285;28;20183;-85
2022/03/04 09:28:40;;;;;;;18.03;6.60;;;2.60;97.30;;;;;;5057298;28;20285;-85
2022/03/04 09:31:06;;;;;;;17.77;7.40;;;2.70;97.30;;;;;;5038584;28;20925;-85
2022/03/04 09:33:31;;;;;;;19.97;6.67;;;2.70;97.30;;;;;;5042655;28;20194;-84
2022/03/04 09:35:57;;;;;;;10.23;5.20;;;2.70;97.30;;;;;;5038259;28;20175;-85
2022/03/04 09:38:24;;;;;;;11.97;6.37;;;2.70;97.30;;;;;;5039027;28;20196;-84
2022/03/04 09:40:50;;;;;;;15.93;6.83;;;2.80;97.30;;;;;;5037962;28;20702;-84
2022/03/04 09:43:18;;;;;;;19.83;6.20;;;2.90;97.30;;;;;;5037648;28;20418;-86
2022/03/04 09:45:46;;;;;;;12.00;6.03;;;2.90;97.30;;;;;;5042532;28;20338;-85
2022/03/04 09:48:12;;;;;;;19.03;6.10;;;2.90;97.30;;;;;;5044130;28;20516;-83
2022/03/04 09:50:38;;;;;;;13.23;5.83;;;2.80;97.30;;;;;;5058393;28;20460;-85
2022/03/04 09:53:09;;;;;;;21.37;6.63;;;2.70;97.30;;;;;;5058004;28;20417;-84
2022/03/04 09:55:36;;;;;;;13.07;6.17;;;2.70;97.30;;;;;;5058240;28;20549;-85
2022/03/04 09:58:01;;;;;;;19.47;5.53;;;2.60;97.30;;;;;;5075477;28;20426;-84
2022/03/04 10:00:27;;;;;;;12.17;5.27;;;2.60;97.30;;;;;;5057414;28;20413;-87
2022/03/04 10:02:52;;;;;;;18.73;7.40;;;2.50;97.30;;;;;;5058551;28;20272;-85
2022/03/04 10:05:18;;;;;;;12.40;5.40;;;2.40;97.30;;;;;;5057115;28;20714;-85
2022/03/04 10:07:49;;;;;;;11.47;5.73;;;2.50;97.30;;;;;;5074948;28;20242;-86
2022/03/04 10:10:17;;;;;;;18.80;7.23;;;2.50;97.30;;;;;;5057583;28;20195;-86
2022/03/04 10:12:48;;;;;;;16.53;6.90;;;2.40;97.30;;;;;;5057563;28;20989;-86
2022/03/04 10:15:13;;;;;;;13.50;5.90;;;2.40;97.30;;;;;;5057147;28;20924;-86
2022/03/04 10:17:39;;;;;;;18.83;7.27;;;2.40;97.30;;;;;;5057756;28;20516;-85
2022/03/04 10:20:08;;;;;;;17.30;6.57;;;2.40;97.30;;;;;;5057993;28;20539;-85
2022/03/04 10:22:48;;;;;;;21.00;6.40;;;2.40;97.30;;;;;;5057899;28;20179;-86
2022/03/04 10:25:19;;;;;;;21.47;7.33;;;2.40;97.30;;;;;;5056914;28;20425;-86
2022/03/04 10:27:47;;;;;;;18.43;6.23;;;2.30;97.30;;;;;;5057444;28;20445;-85
2022/03/04 10:30:14;;;;;;;17.53;6.87;;;2.30;97.30;;;;;;5057042;28;21023;-85
2022/03/04 10:32:40;;;;;;;16.80;6.63;;;2.30;97.30;;;;;;5061485;28;20410;-86
2022/03/04 10:35:11;;;;;;;16.60;7.10;;;2.30;97.30;;;;;;5058214;28;21115;-86
2022/03/04 10:37:54;;;;;;;17.30;6.60;;;2.30;97.30;;;;;;5056616;28;20213;-86
2022/03/04 10:40:24;;;;;;;15.03;6.77;;;2.30;97.30;;;;;;5057072;28;20413;-85
2022/03/04 10:42:51;;;;;;;19.07;6.27;;;2.30;97.30;;;;;;5059774;28;20417;-86
2022/03/04 10:45:23;;;;;;;24.70;7.07;;;2.20;97.30;;;;;;5075393;28;20414;-85
2022/03/04 10:47:54;;;;;;;16.67;6.67;;;2.30;97.30;;;;;;5074653;28;20451;-85
2022/03/04 10:50:32;;;;;;;18.33;7.43;;;2.40;97.30;;;;;;5059444;28;20492;-85
2022/03/04 10:53:09;;;;;;;18.47;7.63;;;2.50;97.30;;;;;;5057474;28;20418;-85
2022/03/04 10:55:46;;;;;;;16.33;6.03;;;2.70;97.30;;;;;;5056783;28;21005;-86
2022/03/04 10:58:15;;;;;;;15.13;5.97;;;2.90;97.30;;;;;;5056842;28;20520;-86
2022/03/04 11:00:44;;;;;;;14.93;6.30;;;3.00;97.30;;;;;;5056857;28;20509;-86
2022/03/04 11:03:20;;;;;;;14.90;5.53;;;3.10;97.30;;;;;;5056495;28;20425;-85
2022/03/04 11:05:47;;;;;;;16.00;6.40;;;3.20;97.30;;;;;;5056746;28;20443;-86
2022/03/04 11:08:14;;;;;;;18.70;6.83;;;3.30;97.30;;;;;;5056195;28;20519;-86
2022/03/04 11:10:40;;;;;;;16.27;5.80;;;3.40;97.30;;;;;;5075066;28;20449;-85
2022/03/04 11:13:07;;;;;;;13.80;5.47;;;3.40;97.30;;;;;;5055881;28;20433;-86
2022/03/04 11:15:34;;;;;;;14.57;6.00;;;3.50;97.30;;;;;;5056209;28;20905;-86
2022/03/04 11:18:09;;;;;;;17.67;6.60;;;3.50;97.30;;;;;;5056565;28;20451;-87
2022/03/04 11:20:35;;;;;;;13.73;5.40;;;3.50;97.30;;;;;;5056025;28;20908;-86
2022/03/04 11:23:02;;;;;;;24.43;6.97;;;3.60;97.30;;;;;;5074926;28;20449;-85
2022/03/04 11:25:35;;;;;;;22.60;6.40;;;3.60;97.30;;;;;;5056259;28;20934;-86
2022/03/04 11:28:17;;;;;;;14.80;6.27;;;3.70;97.30;;;;;;5056904;28;20809;-85
2022/03/04 11:30:46;;;;;;;12.80;5.37;;;3.80;97.30;;;;;;5056369;28;20441;-86
2022/03/04 11:33:18;;;;;;;16.13;6.20;;;3.90;97.30;;;;;;5074546;28;20402;-85
2022/03/04 11:35:59;;;;;;;12.97;5.67;;;4.00;97.30;;;;;;5056101;28;20409;-83
2022/03/04 11:38:46;;;;;;;14.83;6.50;;;4.10;97.30;;;;;;5057050;28;20433;-82
2022/03/04 11:41:27;;;;;;;14.30;6.33;;;4.10;97.30;;;;;;5073371;28;20410;-82
2022/03/04 11:43:55;;;;;;;18.00;5.30;;;4.00;97.30;;;;;;5057487;28;20781;-83
2022/03/04 11:46:22;;;;;;;13.47;5.00;;;4.00;97.30;;;;;;5056775;28;20411;-83
2022/03/04 11:49:08;;;;;;;16.23;5.60;;;4.00;97.30;;;;;;5075153;28;20457;-83
2022/03/04 11:51:34;;;;;;;14.53;6.03;;;3.90;97.30;;;;;;5056175;28;20418;-83
2022/03/04 11:54:25;;;;;;;14.07;6.03;;;3.90;97.30;;;;;;5056373;28;20410;-84
2022/03/04 11:56:52;;;;;;;13.50;5.83;;;3.80;97.30;;;;;;5056904;28;20182;-85
2022/03/04 11:59:19;;;;;;;17.60;6.00;;;3.90;97.30;;;;;;5056386;28;20413;-85
2022/03/04 12:01:45;;;;;;;9.60;5.53;;;3.80;97.30;;;;;;5056587;28;20923;-85
2022/03/04 12:04:19;;;;;;;14.40;5.87;;;3.90;97.30;;;;;;5056406;28;20468;-85
2022/03/04 12:07:05;;;;;;;19.03;5.87;;;3.90;97.30;;;;;;5057036;28;20497;-85
2022/03/04 12:09:31;;;;;;;15.20;5.57;;;4.00;97.30;;;;;;5074127;28;20449;-84
2022/03/04 12:12:18;;;;;;;11.43;5.83;;;4.00;97.30;;;;;;5056340;28;20524;-84
2022/03/04 12:15:15;;;;;;;16.27;5.50;;;4.00;97.30;;;;;;5075002;28;20405;-84
2022/03/04 12:18:03;;;;;;;16.83;6.27;;;4.00;97.30;;;;;;5056371;28;20437;-85
2022/03/04 12:20:50;;;;;;;14.17;6.10;;;4.00;97.30;;;;;;5074487;28;20734;-84
2022/03/04 12:23:17;;;;;;;12.77;6.20;;;4.00;97.30;;;;;;5063933;28;20425;-84
2022/03/04 12:25:55;;;;;;;16.43;6.10;;;4.00;97.30;;;;;;5056081;28;20421;-84
2022/03/04 12:28:26;;;;;;;18.73;7.10;;;4.00;97.30;;;;;;5055860;28;20800;-84
2022/03/04 12:31:16;;;;;;;12.30;5.53;;;3.90;97.30;;;;;;5056334;28;20422;-84
2022/03/04 12:33:42;;;;;;;15.80;6.73;;;3.80;97.30;;;;;;5046171;28;20759;-85
2022/03/04 12:36:14;;;;;;;16.57;7.20;;;3.80;97.30;;;;;;5055600;28;20413;-84
2022/03/04 12:38:42;;;;;;;14.30;6.23;;;3.90;97.30;;;;;;5058573;28;20468;-84
2022/03/04 12:41:16;;;;;;;18.90;6.70;;;4.00;97.30;;;;;;5075124;28;20405;-85